sensor_id;sensor_type;location;lat;lon;timestamp;pressure;altitude;pressure_sealevel;temperature;humidity
39699;BME280;25372;50.582;12.250;2023-05-14T00:06:23;100171.84;;;9.49;86.06
39699;BME280;25372;50.582;12.250;2023-05-14T00:16:46;100169.59;;;9.59;87.01
39699;BME280;25372;50.582;12.250;2023-05-14T00:27:06;100152.34;;;9.71;84.32
39699;BME280;25372;50.582;12.250;2023-05-14T00:37:30;100141.69;;;9.74;85.65
39699;BME280;25372;50.582;12.250;2023-05-14T00:47:51;100137.03;;;9.63;85.42
39699;BME280;25372;50.582;12.250;2023-05-14T00:58:14;100147.19;;;9.69;85.49
39699;BME280;25372;50.582;12.250;2023-05-14T01:08:39;100142.50;;;9.42;85.84
39699;BME280;25372;50.582;12.250;2023-05-14T01:19:09;100132.38;;;9.36;85.98
39699;BME280;25372;50.582;12.250;2023-05-14T01:29:36;100128.06;;;9.35;87.92
39699;BME280;25372;50.582;12.250;2023-05-14T01:39:58;100127.28;;;9.65;84.46
39699;BME280;25372;50.582;12.250;2023-05-14T01:50:21;100128.06;;;9.67;86.43
39699;BME280;25372;50.582;12.250;2023-05-14T02:00:42;100125.78;;;9.61;86.92
39699;BME280;25372;50.582;12.250;2023-05-14T02:11:05;100124.50;;;9.36;86.03
39699;BME280;25372;50.582;12.250;2023-05-14T02:21:25;100121.38;;;8.95;86.43
39699;BME280;25372;50.582;12.250;2023-05-14T02:31:48;100116.31;;;8.22;87.68
39699;BME280;25372;50.582;12.250;2023-05-14T02:42:09;100109.94;;;7.91;87.79
39699;BME280;25372;50.582;12.250;2023-05-14T02:52:31;100110.16;;;7.49;88.88
39699;BME280;25372;50.582;12.250;2023-05-14T03:02:52;100111.06;;;7.29;88.28
39699;BME280;25372;50.582;12.250;2023-05-14T03:13:14;100107.88;;;7.03;89.30
39699;BME280;25372;50.582;12.250;2023-05-14T03:23:36;100111.09;;;6.89;88.60
39699;BME280;25372;50.582;12.250;2023-05-14T03:33:58;100106.59;;;6.72;88.75
39699;BME280;25372;50.582;12.250;2023-05-14T03:44:19;100090.56;;;6.81;88.19
39699;BME280;25372;50.582;12.250;2023-05-14T03:54:42;100085.31;;;7.21;87.62
39699;BME280;25372;50.582;12.250;2023-05-14T04:05:03;100079.28;;;7.38;88.80
39699;BME280;25372;50.582;12.250;2023-05-14T04:15:25;100074.34;;;7.51;88.87
39699;BME280;25372;50.582;12.250;2023-05-14T04:25:47;100070.28;;;8.00;87.49
39699;BME280;25372;50.582;12.250;2023-05-14T04:36:09;100062.75;;;8.64;87.18
39699;BME280;25372;50.582;12.250;2023-05-14T04:46:30;100061.75;;;9.17;84.01
39699;BME280;25372;50.582;12.250;2023-05-14T04:56:52;100053.16;;;9.93;84.56
39699;BME280;25372;50.582;12.250;2023-05-14T05:07:14;100048.53;;;11.16;78.72
39699;BME280;25372;50.582;12.250;2023-05-14T05:17:36;100045.16;;;14.58;63.94
39699;BME280;25372;50.582;12.250;2023-05-14T05:27:57;100033.13;;;17.45;54.22
39699;BME280;25372;50.582;12.250;2023-05-14T05:38:19;100029.22;;;19.68;48.04
39699;BME280;25372;50.582;12.250;2023-05-14T05:48:40;100021.53;;;20.54;45.21
39699;BME280;25372;50.582;12.250;2023-05-14T05:59:01;100021.25;;;17.88;50.75
39699;BME280;25372;50.582;12.250;2023-05-14T06:09:22;100026.97;;;13.72;62.47
39699;BME280;25372;50.582;12.250;2023-05-14T06:19:44;100029.25;;;13.52;65.08
39699;BME280;25372;50.582;12.250;2023-05-14T06:30:06;100021.16;;;13.91;63.00
39699;BME280;25372;50.582;12.250;2023-05-14T06:40:28;100021.84;;;13.82;62.32
39699;BME280;25372;50.582;12.250;2023-05-14T06:50:49;100018.84;;;14.22;60.61
39699;BME280;25372;50.582;12.250;2023-05-14T07:01:11;100008.47;;;14.19;62.32
39699;BME280;25372;50.582;12.250;2023-05-14T07:11:32;100000.06;;;14.73;61.76
39699;BME280;25372;50.582;12.250;2023-05-14T07:21:55;99993.03;;;15.17;58.56
39699;BME280;25372;50.582;12.250;2023-05-14T07:32:16;99987.06;;;15.36;59.46
39699;BME280;25372;50.582;12.250;2023-05-14T07:42:38;99975.22;;;15.52;60.21
39699;BME280;25372;50.582;12.250;2023-05-14T07:52:58;99965.56;;;15.62;57.13
39699;BME280;25372;50.582;12.250;2023-05-14T08:03:21;99955.53;;;15.99;57.58
39699;BME280;25372;50.582;12.250;2023-05-14T08:13:41;99954.38;;;16.44;56.38
39699;BME280;25372;50.582;12.250;2023-05-14T08:24:04;99944.34;;;16.47;57.50
39699;BME280;25372;50.582;12.250;2023-05-14T08:34:25;99939.34;;;19.70;48.11
39699;BME280;25372;50.582;12.250;2023-05-14T08:44:52;99930.16;;;22.19;44.63
39699;BME280;25372;50.582;12.250;2023-05-14T08:55:13;99925.31;;;20.82;43.67
39699;BME280;25372;50.582;12.250;2023-05-14T09:05:36;99930.66;;;22.31;42.97
39699;BME280;25372;50.582;12.250;2023-05-14T09:15:57;99920.41;;;21.70;42.63
39699;BME280;25372;50.582;12.250;2023-05-14T09:26:22;99925.97;;;19.62;47.73
39699;BME280;25372;50.582;12.250;2023-05-14T09:36:43;99902.13;;;18.69;47.61
39699;BME280;25372;50.582;12.250;2023-05-14T09:47:05;99893.56;;;18.76;47.89
39699;BME280;25372;50.582;12.250;2023-05-14T09:57:26;99875.69;;;19.59;46.51
39699;BME280;25372;50.582;12.250;2023-05-14T10:07:50;99874.97;;;19.30;46.86
39699;BME280;25372;50.582;12.250;2023-05-14T10:18:16;99851.28;;;19.00;47.54
39699;BME280;25372;50.582;12.250;2023-05-14T10:28:39;99850.72;;;19.15;49.16
39699;BME280;25372;50.582;12.250;2023-05-14T10:39:02;99850.56;;;19.61;47.50
39699;BME280;25372;50.582;12.250;2023-05-14T10:49:25;99842.28;;;18.37;49.27
39699;BME280;25372;50.582;12.250;2023-05-14T10:59:48;99836.41;;;18.80;49.22
39699;BME280;25372;50.582;12.250;2023-05-14T11:10:14;99828.75;;;18.58;51.75
39699;BME280;25372;50.582;12.250;2023-05-14T11:20:35;99815.94;;;18.44;49.75
39699;BME280;25372;50.582;12.250;2023-05-14T11:30:58;99812.66;;;18.32;51.13
39699;BME280;25372;50.582;12.250;2023-05-14T11:41:19;99799.06;;;18.07;49.78
39699;BME280;25372;50.582;12.250;2023-05-14T11:51:42;99786.00;;;19.33;46.74
39699;BME280;25372;50.582;12.250;2023-05-14T12:02:04;99767.25;;;20.04;47.15
39699;BME280;25372;50.582;12.250;2023-05-14T12:12:33;99756.13;;;20.25;44.10
39699;BME280;25372;50.582;12.250;2023-05-14T12:22:55;99746.97;;;20.28;46.86
39699;BME280;25372;50.582;12.250;2023-05-14T12:33:17;99736.34;;;20.36;43.71
39699;BME280;25372;50.582;12.250;2023-05-14T12:43:42;99727.22;;;22.10;39.94
39699;BME280;25372;50.582;12.250;2023-05-14T12:54:04;99712.34;;;20.44;42.66
39699;BME280;25372;50.582;12.250;2023-05-14T13:04:25;99704.97;;;20.21;44.00
39699;BME280;25372;50.582;12.250;2023-05-14T13:14:47;99708.34;;;20.73;40.90
39699;BME280;25372;50.582;12.250;2023-05-14T13:25:08;99699.84;;;21.11;40.78
39699;BME280;25372;50.582;12.250;2023-05-14T13:35:31;99702.59;;;19.93;42.22
39699;BME280;25372;50.582;12.250;2023-05-14T13:45:53;99691.59;;;19.53;43.11
39699;BME280;25372;50.582;12.250;2023-05-14T13:56:15;99684.38;;;19.37;45.05
39699;BME280;25372;50.582;12.250;2023-05-14T14:06:36;99682.97;;;18.54;46.96
39699;BME280;25372;50.582;12.250;2023-05-14T14:16:57;99671.84;;;18.77;49.19
39699;BME280;25372;50.582;12.250;2023-05-14T14:27:18;99676.91;;;18.43;47.42
39699;BME280;25372;50.582;12.250;2023-05-14T14:37:40;99660.41;;;19.37;48.33
39699;BME280;25372;50.582;12.250;2023-05-14T14:48:21;99647.47;;;18.90;45.63
39699;BME280;25372;50.582;12.250;2023-05-14T14:58:44;99641.50;;;19.14;47.72
39699;BME280;25372;50.582;12.250;2023-05-14T15:09:05;99638.19;;;18.67;48.43
39699;BME280;25372;50.582;12.250;2023-05-14T15:19:29;99630.69;;;18.63;47.17
39699;BME280;25372;50.582;12.250;2023-05-14T15:29:51;99630.31;;;17.85;48.16
39699;BME280;25372;50.582;12.250;2023-05-14T15:40:13;99628.28;;;17.51;49.38
39699;BME280;25372;50.582;12.250;2023-05-14T15:50:34;99623.16;;;17.67;49.89
39699;BME280;25372;50.582;12.250;2023-05-14T16:00:56;99611.06;;;17.55;48.42
39699;BME280;25372;50.582;12.250;2023-05-14T16:11:17;99617.50;;;17.52;50.95
39699;BME280;25372;50.582;12.250;2023-05-14T16:21:39;99620.41;;;17.31;50.18
39699;BME280;25372;50.582;12.250;2023-05-14T16:32:00;99620.47;;;16.54;50.00
39699;BME280;25372;50.582;12.250;2023-05-14T16:42:22;99639.31;;;16.01;51.85
39699;BME280;25372;50.582;12.250;2023-05-14T16:52:44;99635.19;;;15.68;56.45
39699;BME280;25372;50.582;12.250;2023-05-14T17:03:06;99630.03;;;15.25;59.64
39699;BME280;25372;50.582;12.250;2023-05-14T17:13:26;99614.63;;;14.78;62.26
39699;BME280;25372;50.582;12.250;2023-05-14T17:23:49;99610.47;;;15.06;62.58
39699;BME280;25372;50.582;12.250;2023-05-14T17:34:09;99621.66;;;14.89;61.09
39699;BME280;25372;50.582;12.250;2023-05-14T17:44:32;99614.34;;;14.60;61.95
39699;BME280;25372;50.582;12.250;2023-05-14T17:54:52;99614.28;;;14.71;58.76
39699;BME280;25372;50.582;12.250;2023-05-14T18:05:14;99616.72;;;14.63;62.20
39699;BME280;25372;50.582;12.250;2023-05-14T18:15:35;99619.81;;;14.47;63.29
39699;BME280;25372;50.582;12.250;2023-05-14T18:25:58;99615.88;;;14.20;64.34
39699;BME280;25372;50.582;12.250;2023-05-14T18:36:20;99626.34;;;13.77;66.62
39699;BME280;25372;50.582;12.250;2023-05-14T18:46:42;99627.19;;;13.55;66.05
39699;BME280;25372;50.582;12.250;2023-05-14T18:57:03;99634.91;;;13.47;65.69
39699;BME280;25372;50.582;12.250;2023-05-14T19:07:25;99642.06;;;13.22;65.95
39699;BME280;25372;50.582;12.250;2023-05-14T19:17:46;99646.91;;;12.69;69.72
39699;BME280;25372;50.582;12.250;2023-05-14T19:28:08;99664.41;;;11.97;71.86
39699;BME280;25372;50.582;12.250;2023-05-14T19:38:29;99664.22;;;11.50;74.23
39699;BME280;25372;50.582;12.250;2023-05-14T19:48:51;99650.69;;;11.04;77.00
39699;BME280;25372;50.582;12.250;2023-05-14T19:59:12;99642.06;;;10.63;78.29
39699;BME280;25372;50.582;12.250;2023-05-14T20:09:34;99641.22;;;10.50;78.81
39699;BME280;25372;50.582;12.250;2023-05-14T20:19:55;99626.63;;;10.31;80.53
39699;BME280;25372;50.582;12.250;2023-05-14T20:30:17;99613.38;;;10.07;79.35
39699;BME280;25372;50.582;12.250;2023-05-14T20:40:38;99609.19;;;9.90;81.04
39699;BME280;25372;50.582;12.250;2023-05-14T20:51:00;99604.03;;;9.61;80.94
39699;BME280;25372;50.582;12.250;2023-05-14T21:01:23;99585.91;;;9.43;81.21
39699;BME280;25372;50.582;12.250;2023-05-14T21:11:45;99590.19;;;9.59;84.30
39699;BME280;25372;50.582;12.250;2023-05-14T21:22:06;99586.25;;;9.51;82.89
39699;BME280;25372;50.582;12.250;2023-05-14T21:32:28;99573.41;;;9.05;82.87
39699;BME280;25372;50.582;12.250;2023-05-14T21:42:49;99568.53;;;9.28;83.08
39699;BME280;25372;50.582;12.250;2023-05-14T21:53:11;99553.13;;;9.08;83.96
39699;BME280;25372;50.582;12.250;2023-05-14T22:03:32;99541.31;;;9.16;85.11
39699;BME280;25372;50.582;12.250;2023-05-14T22:13:54;99530.91;;;9.29;85.31
39699;BME280;25372;50.582;12.250;2023-05-14T22:24:15;99525.63;;;9.43;84.98
39699;BME280;25372;50.582;12.250;2023-05-14T22:34:37;99517.31;;;9.64;82.82
39699;BME280;25372;50.582;12.250;2023-05-14T22:44:57;99508.59;;;9.91;83.20
39699;BME280;25372;50.582;12.250;2023-05-14T22:55:20;99500.09;;;10.00;82.96
39699;BME280;25372;50.582;12.250;2023-05-14T23:05:41;99482.78;;;9.98;81.64
39699;BME280;25372;50.582;12.250;2023-05-14T23:16:04;99466.88;;;10.14;81.98
39699;BME280;25372;50.582;12.250;2023-05-14T23:26:24;99456.44;;;9.99;81.17
39699;BME280;25372;50.582;12.250;2023-05-14T23:36:46;99446.78;;;9.87;82.65
39699;BME280;25372;50.582;12.250;2023-05-14T23:47:08;99425.72;;;9.88;84.21
39699;BME280;25372;50.582;12.250;2023-05-14T23:57:30;99421.91;;;9.67;83.30
